Time;durP1;ratioP1;P1;durP2;ratioP2;P2;SDS_P1;SDS_P2;PMS_P1;PMS_P2;Temp;Humidity;BMP_temperature;BMP_pressure;BME280_temperature;BME280_humidity;BME280_pressure;Samples;Min_cycle;Max_cycle;Signal;HPM_P1;HPM_P2
2023/08/17 00:01:02;;;;;;;2.53;1.45;;;20.70;99.90;;;;;;4118580;28;20476;-67
2023/08/17 00:03:03;;;;;;;2.50;1.48;;;20.70;99.90;;;;;;4120866;28;21084;-66
2023/08/17 00:05:05;;;;;;;2.75;1.67;;;20.70;99.90;;;;;;4142543;28;20531;-67
2023/08/17 00:07:06;;;;;;;1.67;1.35;;;20.80;99.90;;;;;;4124437;28;20026;-69
2023/08/17 00:09:06;;;;;;;4.80;1.63;;;20.80;99.90;;;;;;4121442;28;20431;-66
2023/08/17 00:11:07;;;;;;;4.10;1.83;;;20.80;99.90;;;;;;4124854;28;20364;-66
2023/08/17 00:13:08;;;;;;;4.38;1.52;;;20.60;99.90;;;;;;4125471;28;20030;-66
2023/08/17 00:15:09;;;;;;;3.03;1.63;;;20.40;99.90;;;;;;4119421;28;20030;-66
2023/08/17 00:17:09;;;;;;;3.42;1.50;;;20.40;99.90;;;;;;4140820;28;20033;-67
2023/08/17 00:19:10;;;;;;;2.33;1.25;;;20.40;99.90;;;;;;4122815;28;20035;-67
2023/08/17 00:21:10;;;;;;;1.48;1.20;;;20.40;99.90;;;;;;4124752;28;20027;-67
2023/08/17 00:23:11;;;;;;;1.63;1.20;;;20.40;99.90;;;;;;4128099;28;20034;-67
2023/08/17 00:25:13;;;;;;;2.72;1.20;;;20.40;99.90;;;;;;4116083;28;20062;-67
2023/08/17 00:27:14;;;;;;;2.35;1.40;;;20.40;99.90;;;;;;4125060;28;20034;-67
2023/08/17 00:29:15;;;;;;;2.92;1.40;;;20.40;99.90;;;;;;4126233;28;20454;-66
2023/08/17 00:31:15;;;;;;;2.53;1.17;;;20.40;99.90;;;;;;4116949;28;20034;-66
2023/08/17 00:33:16;;;;;;;1.73;1.25;;;20.50;99.90;;;;;;4121618;28;20458;-67
2023/08/17 00:35:17;;;;;;;2.17;1.30;;;20.50;99.90;;;;;;4125268;28;20043;-67
2023/08/17 00:37:17;;;;;;;2.05;1.13;;;20.50;99.90;;;;;;4125542;28;20030;-67
2023/08/17 00:39:19;;;;;;;1.80;1.20;;;20.50;99.90;;;;;;4121694;28;20049;-67
2023/08/17 00:41:20;;;;;;;1.98;1.10;;;20.50;99.90;;;;;;4118041;28;20085;-67
2023/08/17 00:43:21;;;;;;;1.50;1.25;;;20.50;99.90;;;;;;4128030;28;20034;-68
2023/08/17 00:45:23;;;;;;;3.83;1.50;;;20.50;99.90;;;;;;4127157;28;20042;-66
2023/08/17 00:47:24;;;;;;;1.98;0.90;;;20.50;99.90;;;;;;4117282;28;20484;-67
2023/08/17 00:49:28;;;;;;;2.67;1.38;;;20.50;99.90;;;;;;4107518;28;20050;-70
2023/08/17 00:51:29;;;;;;;3.60;1.40;;;20.50;99.90;;;;;;4113008;28;20043;-69
2023/08/17 00:53:31;;;;;;;1.67;1.25;;;20.40;99.90;;;;;;4127625;28;22125;-66
2023/08/17 00:55:33;;;;;;;1.52;1.00;;;20.50;99.90;;;;;;4112810;28;20035;-72
2023/08/17 00:57:35;;;;;;;3.65;1.08;;;20.50;99.90;;;;;;4113695;28;20097;-73
2023/08/17 00:59:35;;;;;;;3.28;1.27;;;20.40;99.90;;;;;;4134800;28;20117;-73
2023/08/17 01:01:37;;;;;;;2.05;1.23;;;20.40;99.90;;;;;;4121653;28;20113;-70
2023/08/17 01:03:40;;;;;;;3.50;1.67;;;20.30;99.90;;;;;;4134825;28;20061;-71
2023/08/17 01:05:41;;;;;;;1.88;1.17;;;20.20;99.90;;;;;;4111227;28;20097;-68
2023/08/17 01:07:41;;;;;;;3.50;1.50;;;20.20;99.90;;;;;;4120958;28;20066;-67
2023/08/17 01:09:42;;;;;;;1.98;1.20;;;20.20;99.90;;;;;;4123909;28;20085;-67
2023/08/17 01:11:54;;;;;;;3.67;1.38;;;20.20;99.90;;;;;;4158317;28;20545;-67
2023/08/17 01:14:14;;;;;;;4.47;1.70;;;20.10;99.90;;;;;;4145421;28;20038;-69
2023/08/17 01:16:25;;;;;;;2.13;1.33;;;20.10;99.90;;;;;;4112802;28;20042;-67
2023/08/17 01:18:31;;;;;;;3.75;1.75;;;19.90;99.90;;;;;;4113003;28;20404;-67
2023/08/17 01:20:33;;;;;;;5.32;1.38;;;19.90;99.90;;;;;;4119924;28;20089;-67
2023/08/17 01:22:35;;;;;;;1.95;1.08;;;19.90;99.90;;;;;;4150518;28;20037;-67
2023/08/17 01:24:36;;;;;;;1.70;1.17;;;19.80;99.90;;;;;;4112845;28;20038;-70
2023/08/17 01:26:37;;;;;;;2.35;1.27;;;19.80;99.90;;;;;;4140647;28;20049;-67
2023/08/17 01:28:37;;;;;;;7.60;1.85;;;19.90;99.90;;;;;;4124356;28;20508;-68
2023/08/17 01:30:55;;;;;;;4.63;1.70;;;19.70;99.90;;;;;;4145488;28;20046;-67
2023/08/17 01:33:08;;;;;;;3.00;1.38;;;19.60;99.90;;;;;;4118694;28;20038;-69
2023/08/17 01:35:21;;;;;;;1.98;1.38;;;19.60;99.90;;;;;;4121616;28;20114;-70
2023/08/17 01:37:25;;;;;;;1.85;1.20;;;19.60;99.90;;;;;;4113621;28;20030;-67
2023/08/17 01:39:32;;;;;;;3.55;1.52;;;19.60;99.90;;;;;;4116121;28;20030;-66
2023/08/17 01:41:34;;;;;;;2.35;1.45;;;19.60;99.90;;;;;;4110089;28;20590;-68
2023/08/17 01:43:35;;;;;;;2.88;1.48;;;19.50;99.90;;;;;;4116731;28;20093;-68
2023/08/17 01:45:36;;;;;;;2.42;1.63;;;19.60;99.90;;;;;;4123039;28;20038;-66
2023/08/17 01:47:36;;;;;;;3.08;1.48;;;19.60;99.90;;;;;;4135114;28;20091;-68
2023/08/17 01:49:37;;;;;;;3.95;1.63;;;19.60;99.90;;;;;;4111006;28;20049;-67
2023/08/17 01:51:38;;;;;;;3.33;1.80;;;19.50;99.90;;;;;;4109103;28;20041;-69
2023/08/17 01:53:38;;;;;;;2.10;1.23;;;19.50;99.90;;;;;;4115505;28;20043;-68
2023/08/17 01:55:39;;;;;;;3.92;1.15;;;19.50;99.90;;;;;;4120827;28;20045;-66
2023/08/17 01:57:40;;;;;;;2.58;1.52;;;19.60;99.90;;;;;;4122603;28;20038;-66
2023/08/17 01:59:41;;;;;;;2.50;1.30;;;19.60;99.90;;;;;;4154384;28;20430;-68
2023/08/17 02:01:41;;;;;;;3.08;1.67;;;19.60;99.90;;;;;;4123175;28;20042;-67
2023/08/17 02:03:42;;;;;;;4.88;1.88;;;19.70;99.90;;;;;;4124579;28;20512;-67
2023/08/17 02:05:47;;;;;;;4.40;1.63;;;19.70;99.90;;;;;;4152130;28;20469;-68
2023/08/17 02:07:47;;;;;;;3.60;1.75;;;19.70;99.90;;;;;;4119062;28;20047;-67
2023/08/17 02:09:48;;;;;;;4.03;1.55;;;19.70;99.90;;;;;;4125118;28;20172;-66
2023/08/17 02:11:48;;;;;;;4.10;1.80;;;19.60;99.90;;;;;;4117378;28;20035;-68
2023/08/17 02:13:49;;;;;;;1.90;1.40;;;19.60;99.90;;;;;;4124652;28;20046;-67
2023/08/17 02:15:50;;;;;;;7.57;2.03;;;19.70;99.90;;;;;;4147477;28;20798;-66
2023/08/17 02:17:50;;;;;;;3.72;1.48;;;19.70;99.90;;;;;;4102639;28;20050;-66
2023/08/17 02:19:51;;;;;;;3.67;1.70;;;19.70;99.90;;;;;;4140450;28;20030;-66
2023/08/17 02:21:52;;;;;;;2.00;1.58;;;19.70;99.90;;;;;;4122609;28;20376;-66
2023/08/17 02:23:52;;;;;;;5.28;1.65;;;19.80;99.90;;;;;;4120784;28;20406;-67
2023/08/17 02:25:53;;;;;;;2.55;1.35;;;19.80;99.90;;;;;;4121824;28;20034;-67
2023/08/17 02:27:53;;;;;;;3.00;1.50;;;19.80;99.90;;;;;;4138576;28;20113;-70
2023/08/17 02:29:54;;;;;;;1.77;1.48;;;19.80;99.90;;;;;;4126070;28;20725;-66
2023/08/17 02:31:55;;;;;;;4.53;1.75;;;19.80;99.90;;;;;;4140574;28;20058;-66
2023/08/17 02:34:00;;;;;;;2.97;1.38;;;19.80;99.90;;;;;;4137835;28;20025;-67
2023/08/17 02:36:01;;;;;;;2.40;1.63;;;19.80;99.90;;;;;;4122686;28;20130;-68
2023/08/17 02:38:01;;;;;;;1.63;1.10;;;19.80;99.90;;;;;;4118825;28;20062;-67
2023/08/17 02:40:04;;;;;;;2.10;1.48;;;19.90;99.90;;;;;;4109813;28;20400;-67
2023/08/17 02:42:05;;;;;;;2.80;1.33;;;19.90;99.90;;;;;;4139240;28;20083;-70
2023/08/17 02:44:05;;;;;;;2.75;1.35;;;19.90;99.90;;;;;;4117976;28;20485;-68
2023/08/17 02:46:07;;;;;;;2.55;1.25;;;19.90;99.90;;;;;;4127860;28;20403;-71
2023/08/17 02:48:07;;;;;;;2.25;1.52;;;19.80;99.90;;;;;;4110009;28;20039;-67
2023/08/17 02:50:08;;;;;;;1.67;1.15;;;19.80;99.90;;;;;;4132157;28;20444;-68
2023/08/17 02:52:09;;;;;;;2.95;1.40;;;19.90;99.90;;;;;;4118568;28;20423;-67
2023/08/17 02:54:10;;;;;;;3.65;1.73;;;19.90;99.90;;;;;;4136502;28;20118;-68
2023/08/17 02:56:13;;;;;;;1.15;1.02;;;19.90;99.90;;;;;;4119339;28;20538;-67
2023/08/17 02:58:14;;;;;;;2.65;1.08;;;19.80;99.90;;;;;;4114237;28;20027;-67
2023/08/17 03:00:14;;;;;;;4.18;1.50;;;19.80;99.90;;;;;;4116655;28;20591;-67
2023/08/17 03:02:17;;;;;;;1.85;1.10;;;19.80;99.90;;;;;;4114783;28;20069;-67
2023/08/17 03:04:18;;;;;;;6.10;1.80;;;19.90;99.90;;;;;;4106770;28;20484;-67
2023/08/17 03:06:19;;;;;;;1.52;1.27;;;19.90;99.90;;;;;;4108750;28;20045;-67
2023/08/17 03:08:19;;;;;;;4.25;1.60;;;19.90;99.90;;;;;;4117764;28;20026;-66
2023/08/17 03:10:20;;;;;;;2.25;1.20;;;19.90;99.90;;;;;;4121701;28;20050;-67
2023/08/17 03:12:21;;;;;;;2.45;1.38;;;19.90;99.90;;;;;;4144269;28;20085;-66
2023/08/17 03:14:21;;;;;;;1.73;1.08;;;19.90;99.90;;;;;;4123931;28;20109;-67
2023/08/17 03:16:22;;;;;;;1.80;1.20;;;19.90;99.90;;;;;;4121775;28;20097;-67
2023/08/17 03:18:22;;;;;;;2.58;1.42;;;19.90;99.90;;;;;;4115342;28;20031;-66
2023/08/17 03:20:23;;;;;;;4.45;1.73;;;19.90;99.90;;;;;;4085724;28;20680;-66
2023/08/17 03:22:24;;;;;;;1.98;1.42;;;19.90;99.90;;;;;;4126119;28;20121;-66
2023/08/17 03:24:24;;;;;;;2.33;1.50;;;19.90;99.90;;;;;;4119951;28;20031;-67
2023/08/17 03:26:25;;;;;;;4.50;1.70;;;19.90;99.90;;;;;;4120806;28;20034;-71
2023/08/17 03:28:27;;;;;;;2.75;1.30;;;19.90;99.90;;;;;;4124449;28;20407;-71
2023/08/17 03:30:27;;;;;;;3.10;1.48;;;19.80;99.90;;;;;;4122544;28;20138;-71
2023/08/17 03:32:28;;;;;;;3.38;1.70;;;19.80;99.90;;;;;;4115202;28;20031;-71
2023/08/17 03:34:29;;;;;;;3.97;1.75;;;19.70;99.90;;;;;;4119134;28;20034;-71
2023/08/17 03:36:30;;;;;;;3.63;1.48;;;19.70;99.90;;;;;;4114367;28;20037;-71
2023/08/17 03:38:30;;;;;;;3.50;1.83;;;19.50;99.90;;;;;;4152547;28;20454;-71
2023/08/17 03:40:31;;;;;;;2.47;1.45;;;19.50;99.90;;;;;;4112958;28;20551;-70
2023/08/17 03:42:34;;;;;;;2.80;1.67;;;19.50;99.90;;;;;;4110627;28;20063;-70
2023/08/17 03:44:34;;;;;;;2.15;1.63;;;19.50;99.90;;;;;;4119457;28;20042;-70
2023/08/17 03:46:35;;;;;;;5.25;1.60;;;19.50;99.90;;;;;;4123102;28;20065;-70
2023/08/17 03:48:36;;;;;;;4.05;1.50;;;19.40;99.90;;;;;;4133696;28;20117;-70
2023/08/17 03:50:36;;;;;;;4.90;1.83;;;19.40;99.90;;;;;;4132505;28;20045;-70
2023/08/17 03:52:37;;;;;;;2.60;1.30;;;19.40;99.90;;;;;;4118806;28;20452;-69
2023/08/17 03:54:38;;;;;;;4.65;1.70;;;19.50;99.90;;;;;;4118480;28;20032;-70
2023/08/17 03:56:38;;;;;;;2.58;1.67;;;19.50;99.90;;;;;;4133888;28;20486;-70
2023/08/17 03:58:39;;;;;;;1.92;1.50;;;19.50;99.90;;;;;;4150078;28;20037;-71
2023/08/17 04:00:40;;;;;;;1.80;1.30;;;19.50;99.90;;;;;;4118533;28;20035;-71
2023/08/17 04:02:41;;;;;;;2.67;1.48;;;19.50;99.90;;;;;;4113656;28;20038;-71
2023/08/17 04:04:41;;;;;;;2.58;1.60;;;19.40;99.90;;;;;;4140152;28;20462;-70
2023/08/17 04:06:42;;;;;;;3.22;1.58;;;19.50;99.90;;;;;;4127275;28;20400;-70
2023/08/17 04:08:42;;;;;;;2.80;1.80;;;19.50;99.90;;;;;;4125108;28;20037;-71
2023/08/17 04:10:43;;;;;;;2.90;1.65;;;19.50;99.90;;;;;;4113936;28;20038;-70
2023/08/17 04:12:44;;;;;;;2.70;1.65;;;19.50;99.90;;;;;;4100431;28;20486;-71
2023/08/17 04:14:45;;;;;;;2.75;1.63;;;19.50;99.90;;;;;;4126932;28;20148;-71
2023/08/17 04:16:45;;;;;;;2.83;1.67;;;19.50;99.90;;;;;;4115240;28;20070;-70
2023/08/17 04:18:46;;;;;;;2.88;1.75;;;19.50;99.90;;;;;;4123187;28;20405;-70
2023/08/17 04:20:46;;;;;;;2.40;1.70;;;19.50;99.90;;;;;;4125102;28;20034;-70
2023/08/17 04:22:47;;;;;;;2.22;1.35;;;19.50;99.90;;;;;;4115969;28;20030;-71
2023/08/17 04:24:48;;;;;;;4.18;1.95;;;19.50;99.90;;;;;;4115483;28;20046;-71
2023/08/17 04:26:48;;;;;;;5.82;2.17;;;19.50;99.90;;;;;;4157564;28;20072;-71
2023/08/17 04:28:49;;;;;;;2.83;1.77;;;19.50;99.90;;;;;;4126489;28;20420;-71
2023/08/17 04:30:49;;;;;;;2.58;1.50;;;19.50;99.90;;;;;;4122294;28;20507;-71
2023/08/17 04:32:52;;;;;;;2.00;1.50;;;19.50;99.90;;;;;;4128609;28;20154;-71
2023/08/17 04:34:53;;;;;;;7.30;1.88;;;19.50;99.90;;;;;;4123644;28;20120;-71
2023/08/17 04:36:53;;;;;;;2.83;1.80;;;19.50;99.90;;;;;;4122554;28;20046;-67
2023/08/17 04:38:54;;;;;;;4.45;2.08;;;19.50;99.90;;;;;;4132680;28;20097;-67
2023/08/17 04:40:57;;;;;;;2.92;1.95;;;19.50;99.90;;;;;;4124402;28;20061;-67
2023/08/17 04:42:58;;;;;;;4.00;1.73;;;19.50;99.90;;;;;;4141611;28;20030;-68
2023/08/17 04:44:58;;;;;;;4.28;1.80;;;19.50;99.90;;;;;;4133591;28;20204;-67
2023/08/17 04:46:59;;;;;;;4.90;2.05;;;19.50;99.90;;;;;;4107566;28;20030;-67
2023/08/17 04:49:00;;;;;;;3.20;1.83;;;19.50;99.90;;;;;;4132484;28;20038;-67
2023/08/17 04:51:00;;;;;;;2.53;1.50;;;19.50;99.90;;;;;;4112113;28;20489;-68
2023/08/17 04:53:02;;;;;;;3.08;1.80;;;19.50;99.90;;;;;;4112507;28;20160;-67
2023/08/17 04:55:03;;;;;;;3.20;1.73;;;19.50;99.90;;;;;;4126217;28;20459;-68
2023/08/17 04:57:05;;;;;;;2.45;1.50;;;19.50;99.90;;;;;;4139796;28;20109;-67
2023/08/17 04:59:06;;;;;;;3.50;1.70;;;19.40;99.90;;;;;;4120641;28;20100;-66
2023/08/17 05:01:10;;;;;;;3.47;1.80;;;19.50;99.90;;;;;;4110132;28;20039;-68
2023/08/17 05:03:10;;;;;;;2.92;1.85;;;19.40;99.90;;;;;;4108627;28;20039;-67
2023/08/17 05:05:12;;;;;;;2.65;1.85;;;19.40;99.90;;;;;;4099458;28;20089;-67
2023/08/17 05:07:13;;;;;;;2.97;1.67;;;19.40;99.90;;;;;;4111428;28;20064;-67
2023/08/17 05:09:13;;;;;;;4.97;1.63;;;19.40;99.90;;;;;;4122337;28;20026;-67
2023/08/17 05:11:14;;;;;;;3.03;1.85;;;19.50;99.90;;;;;;4119401;28;20377;-67
2023/08/17 05:13:15;;;;;;;4.57;1.80;;;19.40;99.90;;;;;;4126153;28;20035;-67
2023/08/17 05:15:15;;;;;;;2.80;1.63;;;19.40;99.90;;;;;;4122579;28;20042;-68
2023/08/17 05:17:16;;;;;;;2.88;1.73;;;19.40;99.90;;;;;;4135367;28;20439;-67
2023/08/17 05:19:17;;;;;;;3.50;1.80;;;19.40;99.90;;;;;;4126092;28;20369;-67
2023/08/17 05:21:17;;;;;;;4.63;1.85;;;19.40;99.90;;;;;;4127286;28;20070;-67
2023/08/17 05:23:18;;;;;;;4.90;2.00;;;19.40;99.90;;;;;;4118120;28;20407;-68
2023/08/17 05:25:18;;;;;;;3.10;2.00;;;19.40;99.90;;;;;;4117317;28;20117;-67
2023/08/17 05:27:19;;;;;;;5.20;2.25;;;19.40;99.90;;;;;;4124064;28;20121;-67
2023/08/17 05:29:20;;;;;;;2.35;1.70;;;19.40;99.90;;;;;;4124737;28;20484;-67
2023/08/17 05:31:20;;;;;;;3.15;1.70;;;19.40;99.90;;;;;;4118364;28;20034;-67
2023/08/17 05:33:21;;;;;;;4.70;1.90;;;19.40;99.90;;;;;;4120196;28;20038;-68
2023/08/17 05:35:21;;;;;;;6.88;2.33;;;19.40;99.90;;;;;;4132014;28;20066;-69
2023/08/17 05:37:22;;;;;;;3.30;1.73;;;19.40;99.90;;;;;;4125987;28;20064;-67
2023/08/17 05:39:23;;;;;;;3.70;2.00;;;19.40;99.90;;;;;;4127610;28;20026;-67
2023/08/17 05:41:23;;;;;;;3.05;1.73;;;19.40;99.90;;;;;;4116111;28;20045;-68
2023/08/17 05:43:24;;;;;;;4.13;1.83;;;19.50;99.90;;;;;;4118786;28;20476;-67
2023/08/17 05:45:25;;;;;;;2.72;1.80;;;19.40;99.90;;;;;;4136466;28;20602;-74
2023/08/17 05:47:26;;;;;;;2.78;1.67;;;19.40;99.90;;;;;;4119172;28;20124;-73
2023/08/17 05:49:29;;;;;;;4.03;1.63;;;19.40;99.90;;;;;;4114635;28;20448;-74
2023/08/17 05:51:30;;;;;;;4.05;1.83;;;19.40;99.90;;;;;;4116324;28;20027;-74
2023/08/17 05:53:36;;;;;;;3.60;1.73;;;19.40;99.90;;;;;;4126760;28;20034;-71
2023/08/17 05:55:36;;;;;;;4.32;1.80;;;19.50;99.90;;;;;;4123505;28;20049;-70
2023/08/17 05:57:37;;;;;;;4.97;1.98;;;19.50;99.90;;;;;;4116499;28;20034;-71
2023/08/17 05:59:38;;;;;;;3.65;1.88;;;19.50;99.90;;;;;;4134186;28;20034;-70
2023/08/17 06:01:38;;;;;;;3.40;1.90;;;19.50;99.90;;;;;;4127579;28;20034;-69
2023/08/17 06:03:39;;;;;;;2.60;1.65;;;19.50;99.90;;;;;;4124335;28;21599;-69
2023/08/17 06:05:40;;;;;;;3.45;1.67;;;19.60;99.90;;;;;;4119216;28;20077;-69
2023/08/17 06:07:41;;;;;;;2.55;1.75;;;19.60;99.90;;;;;;4132655;28;20033;-69
2023/08/17 06:09:41;;;;;;;5.15;2.00;;;19.50;99.90;;;;;;4137117;28;20548;-68
2023/08/17 06:11:42;;;;;;;4.10;1.92;;;19.60;99.90;;;;;;4124979;28;20034;-69
2023/08/17 06:13:42;;;;;;;5.05;2.00;;;19.60;99.90;;;;;;4123690;28;20054;-69
2023/08/17 06:15:43;;;;;;;3.95;1.70;;;19.60;99.90;;;;;;4108487;28;20443;-69
2023/08/17 06:17:44;;;;;;;6.70;2.28;;;19.60;99.90;;;;;;4120453;28;20037;-69
2023/08/17 06:19:44;;;;;;;3.90;2.10;;;19.60;99.90;;;;;;4125387;28;20035;-69
2023/08/17 06:21:45;;;;;;;2.65;1.92;;;19.60;99.90;;;;;;4122341;28;20062;-69
2023/08/17 06:23:54;;;;;;;2.72;1.58;;;19.60;99.90;;;;;;4116364;28;20231;-69
2023/08/17 06:25:58;;;;;;;4.05;1.98;;;19.60;99.90;;;;;;4126269;28;20025;-69
2023/08/17 06:27:59;;;;;;;2.63;1.50;;;19.60;99.90;;;;;;4137683;28;20125;-69
2023/08/17 06:29:59;;;;;;;3.05;2.05;;;19.60;99.90;;;;;;4112388;28;20428;-69
2023/08/17 06:32:00;;;;;;;5.13;2.13;;;19.60;99.90;;;;;;4109723;28;20035;-70
2023/08/17 06:34:01;;;;;;;4.05;2.03;;;19.60;99.90;;;;;;4131595;28;20834;-69
2023/08/17 06:36:01;;;;;;;2.92;2.00;;;19.70;99.90;;;;;;4107931;28;20039;-69
2023/08/17 06:38:02;;;;;;;6.88;1.85;;;19.70;99.90;;;;;;4109563;28;20058;-68
2023/08/17 06:40:06;;;;;;;3.95;2.10;;;19.60;99.90;;;;;;4124712;28;20438;-69
2023/08/17 06:42:07;;;;;;;4.40;1.75;;;19.60;99.90;;;;;;4133840;28;20165;-68
2023/08/17 06:44:11;;;;;;;5.80;1.90;;;19.60;99.90;;;;;;4121237;28;20116;-69
2023/08/17 06:46:11;;;;;;;3.72;1.77;;;19.60;99.90;;;;;;4119361;28;20038;-69
2023/08/17 06:48:12;;;;;;;6.72;2.60;;;19.60;99.90;;;;;;4109742;28;20030;-69
2023/08/17 06:50:13;;;;;;;6.10;2.38;;;19.60;99.90;;;;;;4123529;28;20035;-69
2023/08/17 06:52:13;;;;;;;4.75;2.40;;;19.50;99.90;;;;;;4109712;28;20042;-69
2023/08/17 06:54:14;;;;;;;3.53;1.83;;;19.60;99.90;;;;;;4147497;28;20042;-69
2023/08/17 06:56:15;;;;;;;3.58;1.95;;;19.60;99.90;;;;;;4120245;28;20038;-69
2023/08/17 06:58:16;;;;;;;5.30;2.13;;;19.60;99.90;;;;;;4124564;28;20444;-69
2023/08/17 07:00:18;;;;;;;2.63;1.55;;;19.70;99.90;;;;;;4120869;28;20035;-70
2023/08/17 07:02:22;;;;;;;3.90;2.50;;;19.70;99.90;;;;;;4114357;28;20061;-69
2023/08/17 07:04:23;;;;;;;4.45;2.28;;;19.70;99.90;;;;;;4118371;28;20043;-69
2023/08/17 07:06:28;;;;;;;4.60;2.90;;;19.70;99.90;;;;;;4136547;28;20117;-74
2023/08/17 07:08:29;;;;;;;5.15;3.50;;;19.70;99.90;;;;;;4117532;28;20042;-74
2023/08/17 07:10:29;;;;;;;6.80;3.20;;;19.50;99.90;;;;;;4109911;28;20035;-71
2023/08/17 07:12:30;;;;;;;5.13;2.85;;;19.40;99.90;;;;;;4117014;28;20042;-74
2023/08/17 07:14:31;;;;;;;5.15;2.63;;;19.50;99.90;;;;;;4133388;28;20037;-71
2023/08/17 07:16:32;;;;;;;7.95;4.20;;;19.60;99.90;;;;;;4123163;28;20600;-76
2023/08/17 07:18:32;;;;;;;8.85;3.58;;;19.50;99.90;;;;;;4131884;28;20145;-72
2023/08/17 07:20:33;;;;;;;4.78;3.13;;;19.40;99.90;;;;;;4115620;28;20128;-72
2023/08/17 07:22:34;;;;;;;5.35;2.92;;;19.50;99.90;;;;;;4131165;28;20042;-74
2023/08/17 07:24:35;;;;;;;5.15;2.95;;;19.50;99.90;;;;;;4116405;28;20224;-71
2023/08/17 07:26:45;;;;;;;5.93;3.45;;;19.60;99.90;;;;;;4118425;28;20564;-74
2023/08/17 07:28:54;;;;;;;6.20;3.53;;;19.50;99.90;;;;;;4107380;28;20188;-74
2023/08/17 07:30:55;;;;;;;5.45;3.10;;;19.60;99.90;;;;;;4122399;28;20049;-74
2023/08/17 07:32:55;;;;;;;4.55;3.00;;;19.60;99.90;;;;;;4121413;28;20041;-74
2023/08/17 07:34:56;;;;;;;5.80;2.80;;;19.60;99.90;;;;;;4121964;28;20043;-74
2023/08/17 07:36:57;;;;;;;5.90;3.10;;;19.60;99.90;;;;;;4138736;28;20045;-72
2023/08/17 07:38:58;;;;;;;8.82;4.05;;;19.70;99.90;;;;;;4142072;28;20042;-72
2023/08/17 07:40:59;;;;;;;9.07;4.70;;;19.70;99.90;;;;;;4124308;28;20109;-74
2023/08/17 07:43:01;;;;;;;8.75;4.20;;;19.70;99.90;;;;;;4140895;28;20446;-73
2023/08/17 07:45:05;;;;;;;8.80;5.13;;;19.70;99.90;;;;;;4109454;28;20454;-72
2023/08/17 07:47:06;;;;;;;8.63;4.90;;;19.50;99.90;;;;;;4125781;28;20057;-70
2023/08/17 07:49:07;;;;;;;7.22;4.30;;;19.40;99.90;;;;;;4126647;28;20041;-72
2023/08/17 07:51:07;;;;;;;12.05;5.97;;;19.40;99.90;;;;;;4140505;28;20042;-73
2023/08/17 07:53:08;;;;;;;8.60;4.30;;;19.20;99.90;;;;;;4111041;28;20050;-74
2023/08/17 07:55:08;;;;;;;10.05;5.47;;;19.40;99.90;;;;;;4138001;28;20586;-74
2023/08/17 07:57:09;;;;;;;9.55;5.55;;;19.40;99.90;;;;;;4111246;28;20444;-74
2023/08/17 07:59:10;;;;;;;11.10;7.15;;;19.40;99.90;;;;;;4119770;28;20058;-73
2023/08/17 08:01:10;;;;;;;13.07;7.00;;;19.30;99.90;;;;;;4124641;28;20046;-73
2023/08/17 08:03:11;;;;;;;13.13;7.30;;;19.20;99.90;;;;;;4139559;28;20108;-74
2023/08/17 08:05:14;;;;;;;9.57;5.50;;;19.10;99.90;;;;;;4127043;28;20041;-74
2023/08/17 08:07:14;;;;;;;;;;;19.10;99.90;;;;;;4124637;28;20408;-73
2023/08/17 08:09:15;;;;;;;13.25;7.03;;;19.00;99.90;;;;;;4113146;28;19917;-74
2023/08/17 08:11:15;;;;;;;10.35;6.18;;;19.00;99.90;;;;;;4106823;28;20473;-73
2023/08/17 08:13:16;;;;;;;11.98;6.53;;;18.90;99.90;;;;;;4113590;28;20114;-74
2023/08/17 08:15:17;;;;;;;10.73;5.38;;;18.80;99.90;;;;;;4116523;28;20581;-66
2023/08/17 08:17:19;;;;;;;12.02;6.00;;;19.00;99.90;;;;;;4117557;28;20480;-69
2023/08/17 08:19:19;;;;;;;13.05;5.75;;;18.90;99.90;;;;;;4112897;28;20027;-69
2023/08/17 08:21:20;;;;;;;8.18;5.50;;;19.10;99.90;;;;;;4110975;28;20041;-69
2023/08/17 08:23:21;;;;;;;8.57;5.22;;;19.20;99.90;;;;;;4117214;28;20034;-69
2023/08/17 08:25:21;;;;;;;16.83;8.32;;;19.30;99.90;;;;;;4123937;28;20034;-69
2023/08/17 08:27:23;;;;;;;11.82;6.75;;;19.00;99.90;;;;;;4127719;28;20030;-69
2023/08/17 08:29:23;;;;;;;16.00;7.88;;;19.00;99.90;;;;;;4115170;28;20031;-69
2023/08/17 08:31:24;;;;;;;13.57;7.10;;;18.90;99.90;;;;;;4153314;28;20482;-69
2023/08/17 08:33:25;;;;;;;12.65;7.32;;;19.00;99.90;;;;;;4119570;28;20062;-69
2023/08/17 08:35:25;;;;;;;12.88;7.13;;;19.00;99.90;;;;;;4128072;28;20522;-69
2023/08/17 08:37:26;;;;;;;11.35;6.63;;;19.00;99.90;;;;;;4125190;28;20042;-69
2023/08/17 08:39:27;;;;;;;12.02;6.82;;;19.20;99.90;;;;;;4160190;28;20041;-69
2023/08/17 08:41:30;;;;;;;16.05;7.82;;;19.20;99.90;;;;;;4131079;28;20126;-69
2023/08/17 08:43:31;;;;;;;12.50;7.65;;;19.30;99.90;;;;;;4136376;28;20117;-69
2023/08/17 08:45:32;;;;;;;25.02;12.18;;;19.40;99.90;;;;;;4123583;28;20049;-69
2023/08/17 08:47:35;;;;;;;17.25;10.18;;;19.30;99.90;;;;;;4123729;28;20042;-70
2023/08/17 08:49:40;;;;;;;15.25;9.25;;;19.30;99.90;;;;;;4112903;28;20520;-69
2023/08/17 08:51:45;;;;;;;17.25;9.27;;;19.30;99.90;;;;;;4111887;28;20046;-69
2023/08/17 08:53:51;;;;;;;14.65;8.27;;;19.20;99.90;;;;;;4111052;28;20050;-69
2023/08/17 08:55:58;;;;;;;12.90;7.05;;;19.30;99.90;;;;;;4117094;28;20050;-69
2023/08/17 08:57:59;;;;;;;16.48;8.90;;;19.30;99.90;;;;;;4123161;28;20069;-69
2023/08/17 09:00:00;;;;;;;14.85;8.30;;;19.30;99.90;;;;;;4109117;28;20221;-68
2023/08/17 09:02:00;;;;;;;10.13;6.85;;;19.30;99.90;;;;;;4105982;28;20058;-69
2023/08/17 09:04:02;;;;;;;12.48;6.80;;;19.40;99.90;;;;;;4107151;28;20043;-69
2023/08/17 09:06:04;;;;;;;9.90;6.20;;;19.50;99.90;;;;;;4092524;28;20183;-68
2023/08/17 09:08:08;;;;;;;9.45;6.25;;;19.60;99.90;;;;;;4108822;28;20893;-69
2023/08/17 09:10:10;;;;;;;10.95;6.43;;;19.70;99.90;;;;;;4121165;28;20027;-69
2023/08/17 09:12:11;;;;;;;9.23;5.47;;;19.80;99.90;;;;;;4125025;28;20034;-69
2023/08/17 09:14:12;;;;;;;13.45;6.70;;;19.80;99.90;;;;;;4121679;28;20073;-69
2023/08/17 09:16:12;;;;;;;9.60;6.85;;;19.80;99.90;;;;;;4122694;28;20042;-69
2023/08/17 09:18:13;;;;;;;11.60;7.65;;;19.80;99.90;;;;;;4124039;28;20122;-68
2023/08/17 09:20:40;;;;;;;16.77;9.07;;;19.80;99.90;;;;;;4123732;28;20065;-69
2023/08/17 09:22:42;;;;;;;12.82;6.63;;;19.70;99.90;;;;;;4122708;28;20041;-69
2023/08/17 09:24:43;;;;;;;13.30;6.88;;;19.80;99.90;;;;;;4113946;28;20492;-69
2023/08/17 09:26:44;;;;;;;16.40;8.50;;;19.80;99.90;;;;;;4123503;28;20045;-68
2023/08/17 09:28:45;;;;;;;12.63;8.88;;;19.70;99.90;;;;;;4121229;28;20085;-68
2023/08/17 09:30:58;;;;;;;15.80;8.73;;;19.50;99.90;;;;;;4129774;28;20124;-69
2023/08/17 09:33:02;;;;;;;11.18;6.97;;;19.40;99.90;;;;;;4120414;28;20404;-69
2023/08/17 09:35:05;;;;;;;12.80;7.18;;;19.40;99.90;;;;;;4116060;28;20106;-68
2023/08/17 09:37:06;;;;;;;13.38;7.95;;;19.40;99.90;;;;;;4109188;28;20121;-65
2023/08/17 09:39:06;;;;;;;15.75;10.02;;;19.40;99.90;;;;;;4112606;28;20520;-65
2023/08/17 09:41:07;;;;;;;17.60;8.32;;;19.30;99.90;;;;;;4113473;28;20546;-65
2023/08/17 09:43:09;;;;;;;11.75;6.85;;;19.40;99.90;;;;;;4121577;28;20436;-65
2023/08/17 09:45:10;;;;;;;13.13;7.43;;;19.50;99.90;;;;;;4119682;28;20046;-66
2023/08/17 09:47:10;;;;;;;13.23;8.10;;;19.60;99.90;;;;;;4113986;28;20031;-69
2023/08/17 09:49:11;;;;;;;13.43;7.75;;;19.60;99.90;;;;;;4108624;28;20035;-68
2023/08/17 09:51:15;;;;;;;10.52;7.47;;;19.70;99.90;;;;;;4111044;28;20133;-69
2023/08/17 09:53:19;;;;;;;12.95;7.05;;;19.70;99.90;;;;;;4112231;28;20069;-69
2023/08/17 09:55:23;;;;;;;10.02;6.57;;;19.80;99.90;;;;;;4111454;28;20110;-69
2023/08/17 09:57:25;;;;;;;10.43;6.13;;;19.90;99.90;;;;;;4121472;28;20034;-69
2023/08/17 09:59:25;;;;;;;12.82;6.40;;;20.00;99.90;;;;;;4135089;28;20034;-69
2023/08/17 10:01:28;;;;;;;13.00;5.72;;;20.00;99.90;;;;;;4122129;28;20392;-69
2023/08/17 10:03:32;;;;;;;10.38;6.28;;;20.00;99.90;;;;;;4115968;28;20049;-69
2023/08/17 10:05:38;;;;;;;8.40;5.60;;;20.00;99.90;;;;;;4152652;28;20435;-69
2023/08/17 10:07:43;;;;;;;11.75;5.65;;;20.00;99.90;;;;;;4146826;28;20073;-68
2023/08/17 10:09:49;;;;;;;8.25;5.32;;;20.00;99.90;;;;;;4115991;28;20117;-69
2023/08/17 10:11:52;;;;;;;11.15;5.60;;;20.00;99.90;;;;;;4120316;28;20046;-68
2023/08/17 10:14:12;;;;;;;11.48;6.40;;;19.80;99.90;;;;;;4117168;28;20038;-68
2023/08/17 10:16:36;;;;;;;14.63;7.40;;;19.70;99.90;;;;;;4121009;28;20042;-68
2023/08/17 10:18:49;;;;;;;11.50;6.88;;;19.60;99.90;;;;;;4122704;28;20042;-68
2023/08/17 10:21:05;;;;;;;9.82;5.68;;;19.70;99.90;;;;;;4137366;28;20573;-68
2023/08/17 10:23:22;;;;;;;12.85;6.72;;;19.80;99.90;;;;;;4117218;28;20138;-68
2023/08/17 10:25:24;;;;;;;17.08;8.73;;;19.70;99.90;;;;;;4121413;28;20034;-68
2023/08/17 10:27:25;;;;;;;13.40;6.80;;;19.60;99.90;;;;;;4124540;28;20034;-69
2023/08/17 10:29:27;;;;;;;17.23;9.85;;;19.60;99.90;;;;;;4121218;28;20460;-68
2023/08/17 10:31:29;;;;;;;11.88;6.72;;;19.50;99.90;;;;;;4121767;28;20038;-69
2023/08/17 10:33:30;;;;;;;15.65;9.05;;;19.60;99.90;;;;;;4111877;28;20036;-68